Time;durP1;ratioP1;P1;durP2;ratioP2;P2;SDS_P1;SDS_P2;PMS_P1;PMS_P2;Temp;Humidity;BMP_temperature;BMP_pressure;BME280_temperature;BME280_humidity;BME280_pressure;Samples;Min_cycle;Max_cycle;Signal;HPM_P1;HPM_P2
2023/05/31 00:00:07;;;;;;;2.57;2.10;;;;;;;16.59;61.88;100585.69;5070859;28;20210;-73
2023/05/31 00:02:32;;;;;;;2.63;2.20;;;;;;;16.55;62.33;100587.53;5051919;28;20370;-73
2023/05/31 00:04:57;;;;;;;2.73;2.23;;;;;;;16.47;62.83;100579.09;5073532;28;20630;-75
2023/05/31 00:07:23;;;;;;;7.07;2.73;;;;;;;16.49;63.05;100577.25;5068791;28;20203;-73
2023/05/31 00:09:48;;;;;;;4.10;2.50;;;;;;;16.47;62.76;100573.88;5071303;28;20568;-73
2023/05/31 00:12:13;;;;;;;3.13;2.27;;;;;;;16.42;63.07;100576.59;5072560;28;20573;-73
2023/05/31 00:14:39;;;;;;;5.53;2.67;;;;;;;16.40;63.10;100581.03;5071258;28;20231;-73
2023/05/31 00:17:05;;;;;;;3.77;2.03;;;;;;;16.33;63.22;100576.84;5070954;28;20228;-73
2023/05/31 00:19:30;;;;;;;2.10;1.90;;;;;;;16.27;63.39;100570.06;5072318;28;20208;-73
2023/05/31 00:21:56;;;;;;;3.00;2.00;;;;;;;16.28;63.26;100571.78;5057673;28;20175;-74
2023/05/31 00:24:21;;;;;;;4.50;2.20;;;;;;;16.30;63.42;100574.31;5070888;28;20575;-71
2023/05/31 00:26:46;;;;;;;3.13;2.00;;;;;;;16.24;63.56;100574.50;5053656;28;20191;-73
2023/05/31 00:29:12;;;;;;;3.93;2.20;;;;;;;16.20;63.89;100572.88;5071055;28;20211;-73
2023/05/31 00:31:37;;;;;;;3.77;1.97;;;;;;;16.14;64.18;100576.53;5050521;28;20644;-73
2023/05/31 00:34:02;;;;;;;4.93;2.50;;;;;;;16.17;64.17;100581.66;5069757;28;20720;-72
2023/05/31 00:36:28;;;;;;;5.17;2.23;;;;;;;16.14;64.16;100581.75;5066298;28;20185;-73
2023/05/31 00:38:53;;;;;;;4.80;2.40;;;;;;;16.11;64.50;100576.59;5073296;28;20187;-74
2023/05/31 00:41:18;;;;;;;3.23;1.90;;;;;;;16.05;64.63;100587.19;5067933;28;20360;-71
2023/05/31 00:43:44;;;;;;;3.80;2.40;;;;;;;16.05;64.67;100582.84;5073382;28;20189;-73
2023/05/31 00:46:23;;;;;;;4.47;2.23;;;;;;;16.03;64.75;100581.19;5052573;28;22635;-72
2023/05/31 00:48:48;;;;;;;4.70;2.30;;;;;;;15.99;65.16;100580.38;5068303;28;20240;-72
2023/05/31 00:51:13;;;;;;;4.13;2.20;;;;;;;15.94;65.43;100587.50;5070861;28;20648;-73
2023/05/31 00:53:40;;;;;;;3.80;2.00;;;;;;;15.93;66.08;100581.41;5070858;28;20196;-73
2023/05/31 00:56:05;;;;;;;4.27;2.50;;;;;;;15.94;65.46;100577.06;5070077;28;20853;-72
2023/05/31 00:58:34;;;;;;;2.37;2.00;;;;;;;15.87;66.01;100581.59;5070503;28;20182;-71
2023/05/31 01:01:00;;;;;;;3.57;2.40;;;;;;;15.87;66.08;100578.09;5067049;28;20663;-72
2023/05/31 01:03:25;;;;;;;2.70;1.90;;;;;;;15.84;65.77;100574.66;5049731;28;20197;-73
2023/05/31 01:05:51;;;;;;;4.63;1.80;;;;;;;15.92;65.77;100579.69;5068825;28;20830;-73
2023/05/31 01:08:16;;;;;;;3.10;2.07;;;;;;;15.93;65.34;100576.19;5067709;28;20246;-73
2023/05/31 01:10:43;;;;;;;2.53;2.00;;;;;;;15.89;65.56;100576.31;5052216;28;20217;-73
2023/05/31 01:13:24;;;;;;;3.07;1.90;;;;;;;15.89;65.80;100576.31;5075957;28;20185;-72
2023/05/31 01:15:57;;;;;;;3.37;1.83;;;;;;;16.00;65.01;100577.75;5066199;28;20219;-73
2023/05/31 01:18:32;;;;;;;3.73;2.50;;;;;;;15.95;65.17;100574.41;5069456;28;20209;-73
2023/05/31 01:21:01;;;;;;;4.97;2.30;;;;;;;15.96;64.98;100575.25;5068635;28;20318;-73
2023/05/31 01:23:33;;;;;;;5.40;2.20;;;;;;;15.90;65.12;100571.03;5067119;28;20239;-75
2023/05/31 01:26:17;;;;;;;5.77;2.23;;;;;;;15.92;65.33;100569.25;5069044;28;20196;-74
2023/05/31 01:28:44;;;;;;;8.23;2.47;;;;;;;15.91;65.19;100570.16;5067748;28;20354;-74
2023/05/31 01:31:16;;;;;;;4.80;2.13;;;;;;;15.85;65.11;100576.41;5049815;28;20215;-74
2023/05/31 01:33:42;;;;;;;6.10;2.40;;;;;;;15.90;65.11;100570.19;5068944;28;20189;-75
2023/05/31 01:36:08;;;;;;;4.33;2.40;;;;;;;15.80;65.74;100577.38;5066779;28;20198;-74
2023/05/31 01:38:33;;;;;;;3.63;2.00;;;;;;;15.82;65.65;100579.03;5064971;28;20313;-72
2023/05/31 01:40:58;;;;;;;3.40;2.00;;;;;;;15.75;65.83;100585.34;5066878;28;20215;-72
2023/05/31 01:43:26;;;;;;;4.17;1.93;;;;;;;15.74;65.93;100591.44;5068437;28;20191;-73
2023/05/31 01:45:53;;;;;;;2.10;1.90;;;;;;;15.68;66.32;100597.69;5067501;28;20185;-73
2023/05/31 01:48:19;;;;;;;4.53;2.20;;;;;;;15.64;66.13;100593.44;5063683;28;20284;-73
2023/05/31 01:50:45;;;;;;;6.07;2.33;;;;;;;15.59;66.28;100595.28;5070314;28;20339;-73
2023/05/31 01:53:10;;;;;;;3.97;2.00;;;;;;;15.60;66.47;100588.34;5052805;28;20188;-73
2023/05/31 01:55:36;;;;;;;2.93;2.27;;;;;;;15.52;67.01;100588.53;5071903;28;20206;-72
2023/05/31 01:58:02;;;;;;;3.70;2.30;;;;;;;15.49;67.20;100584.25;5068157;28;20200;-73
2023/05/31 02:00:29;;;;;;;3.90;2.50;;;;;;;15.48;67.30;100579.06;5061618;28;20211;-73
2023/05/31 02:02:55;;;;;;;3.83;2.53;;;;;;;15.44;67.32;100583.50;5064421;28;20551;-72
2023/05/31 02:05:21;;;;;;;4.40;2.00;;;;;;;15.39;67.70;100581.00;5064714;28;20280;-73
2023/05/31 02:07:47;;;;;;;3.30;2.60;;;;;;;15.39;67.59;100580.13;5065169;28;20220;-71
2023/05/31 02:10:13;;;;;;;4.03;2.33;;;;;;;15.33;67.63;100575.09;5069301;28;20715;-73
2023/05/31 02:12:39;;;;;;;6.10;2.70;;;;;;;15.28;67.97;100583.00;5066661;28;20192;-75
2023/05/31 02:15:10;;;;;;;4.60;2.20;;;;;;;15.25;67.94;100577.88;5072187;28;20197;-73
2023/05/31 02:17:40;;;;;;;4.47;2.33;;;;;;;15.22;68.40;100577.94;5052777;28;21132;-73
2023/05/31 02:20:08;;;;;;;4.40;2.30;;;;;;;15.19;68.40;100581.50;5067825;28;20248;-72
2023/05/31 02:22:34;;;;;;;3.13;1.80;;;;;;;15.14;68.55;100580.72;5053493;28;20654;-72
2023/05/31 02:24:59;;;;;;;4.53;2.20;;;;;;;15.08;68.82;100573.03;5070635;28;20198;-72
2023/05/31 02:27:25;;;;;;;3.87;2.63;;;;;;;15.09;68.88;100577.34;5070842;28;20251;-72
2023/05/31 02:29:50;;;;;;;4.20;2.60;;;;;;;15.11;68.48;100579.94;5068366;28;21095;-72
2023/05/31 02:32:15;;;;;;;4.07;2.00;;;;;;;15.06;69.28;100580.91;5084339;28;20195;-72
2023/05/31 02:34:42;;;;;;;2.60;2.10;;;;;;;15.02;68.96;100579.25;5091195;28;20307;-73
2023/05/31 02:37:07;;;;;;;5.20;2.30;;;;;;;15.03;69.02;100583.56;5095975;28;20225;-73
2023/05/31 02:39:32;;;;;;;3.63;2.50;;;;;;;14.96;69.50;100578.53;5067711;28;20217;-73
2023/05/31 02:41:58;;;;;;;3.23;2.30;;;;;;;14.91;69.45;100581.25;5065857;28;20638;-72
2023/05/31 02:44:23;;;;;;;4.50;2.17;;;;;;;14.82;69.33;100587.53;5068643;28;20247;-72
2023/05/31 02:46:48;;;;;;;5.40;2.30;;;;;;;14.85;69.49;100578.78;5069434;28;21068;-73
2023/05/31 02:49:13;;;;;;;3.47;2.13;;;;;;;14.86;69.75;100588.31;5068116;28;20236;-73
2023/05/31 02:51:39;;;;;;;4.80;2.40;;;;;;;14.78;69.74;100586.75;5065386;28;20210;-73
2023/05/31 02:54:04;;;;;;;3.20;2.13;;;;;;;14.81;70.06;100582.34;5069758;28;20184;-73
2023/05/31 02:56:30;;;;;;;3.13;2.10;;;;;;;14.73;70.12;100585.13;5067472;28;20763;-72
2023/05/31 02:58:56;;;;;;;5.60;2.27;;;;;;;14.73;70.13;100585.13;5068399;28;20768;-73
2023/05/31 03:01:21;;;;;;;3.93;2.17;;;;;;;14.72;70.42;100588.63;5067228;28;20218;-74
2023/05/31 03:03:46;;;;;;;4.23;2.10;;;;;;;14.72;69.75;100589.47;5066856;28;20188;-72
2023/05/31 03:06:14;;;;;;;4.83;2.10;;;;;;;14.74;69.80;100599.88;5070288;28;20275;-73
2023/05/31 03:08:39;;;;;;;4.47;2.30;;;;;;;14.82;69.33;100599.69;5071930;28;20759;-72
2023/05/31 03:11:04;;;;;;;3.53;2.30;;;;;;;14.76;69.99;100608.47;5072454;28;20225;-73
2023/05/31 03:13:30;;;;;;;4.53;2.10;;;;;;;14.75;70.09;100596.34;5052135;28;20772;-72
2023/05/31 03:15:55;;;;;;;2.03;1.57;;;;;;;14.64;70.66;100605.22;5050735;28;20203;-73
2023/05/31 03:18:20;;;;;;;3.13;2.00;;;;;;;14.71;70.58;100612.94;5073112;28;20185;-72
2023/05/31 03:20:46;;;;;;;3.67;2.23;;;;;;;14.75;70.40;100605.03;5066883;28;20227;-73
2023/05/31 03:23:11;;;;;;;4.70;2.33;;;;;;;14.71;70.33;100610.34;5073067;28;20279;-73
2023/05/31 03:25:36;;;;;;;3.00;2.10;;;;;;;14.66;70.68;100604.34;5073477;28;20191;-73
2023/05/31 03:28:03;;;;;;;4.20;2.50;;;;;;;14.66;71.05;100615.63;5074594;28;20272;-72
2023/05/31 03:30:29;;;;;;;3.13;2.23;;;;;;;14.64;70.98;100615.63;5070831;28;20203;-73
2023/05/31 03:32:55;;;;;;;3.33;2.00;;;;;;;14.67;70.86;100621.69;5074505;28;21044;-72
2023/05/31 03:35:20;;;;;;;5.57;2.97;;;;;;;14.66;70.43;100615.63;5053904;28;20579;-73
2023/05/31 03:37:45;;;;;;;4.87;1.93;;;;;;;14.80;70.44;100624.94;5071397;28;20205;-73
2023/05/31 03:40:11;;;;;;;5.83;2.30;;;;;;;14.74;70.63;100610.28;5071301;28;20212;-73
2023/05/31 03:42:37;;;;;;;4.33;2.13;;;;;;;14.76;70.27;100619.78;5068931;28;20187;-73
2023/05/31 03:45:03;;;;;;;4.10;2.47;;;;;;;14.90;69.66;100619.47;5054418;28;20244;-75
2023/05/31 03:47:28;;;;;;;4.90;2.50;;;;;;;14.90;70.58;100618.63;5069443;28;20195;-72
2023/05/31 03:49:53;;;;;;;2.83;2.27;;;;;;;14.90;70.24;100610.81;5051361;28;20216;-75
2023/05/31 03:52:19;;;;;;;5.70;2.00;;;;;;;14.88;69.63;100621.28;5070026;28;20220;-72
2023/05/31 03:54:46;;;;;;;5.40;2.50;;;;;;;14.94;69.93;100618.50;5072142;28;20214;-72
2023/05/31 03:57:12;;;;;;;5.20;2.23;;;;;;;15.00;69.79;100627.09;5072703;28;20185;-73
2023/05/31 03:59:37;;;;;;;5.33;2.60;;;;;;;14.99;69.95;100631.44;5073542;28;20250;-72
2023/05/31 04:02:03;;;;;;;4.07;2.57;;;;;;;15.03;69.52;100629.66;5065995;28;20203;-75
2023/05/31 04:04:28;;;;;;;6.73;2.73;;;;;;;15.03;69.71;100614.00;5053501;28;20196;-72
2023/05/31 04:06:53;;;;;;;3.00;2.00;;;;;;;15.03;69.52;100624.44;5068372;28;20220;-72
2023/05/31 04:09:19;;;;;;;3.23;2.00;;;;;;;15.02;70.00;100630.53;5068786;28;20228;-74
2023/05/31 04:11:45;;;;;;;4.20;2.50;;;;;;;15.05;69.53;100627.88;5069890;28;20820;-73
2023/05/31 04:14:10;;;;;;;3.37;2.00;;;;;;;15.04;69.79;100641.78;5069726;28;20727;-73
2023/05/31 04:16:36;;;;;;;6.33;2.70;;;;;;;15.03;70.06;100638.31;5068596;28;20240;-73
2023/05/31 04:19:01;;;;;;;4.97;2.10;;;;;;;15.03;69.92;100648.72;5071334;28;20185;-72
2023/05/31 04:21:26;;;;;;;7.30;2.43;;;;;;;15.08;69.25;100641.69;5068801;28;21392;-72
2023/05/31 04:23:52;;;;;;;4.53;2.37;;;;;;;15.16;69.27;100638.03;5050909;28;20530;-73
2023/05/31 04:26:17;;;;;;;5.97;2.10;;;;;;;15.31;68.91;100644.66;5073035;28;21054;-71
2023/05/31 04:28:44;;;;;;;5.37;2.37;;;;;;;15.38;68.67;100649.69;5071297;28;20240;-73
2023/05/31 04:31:10;;;;;;;6.33;2.70;;;;;;;15.52;68.92;100646.75;5069596;28;20249;-74
2023/05/31 04:33:35;;;;;;;3.23;2.30;;;;;;;15.68;68.70;100649.00;5069922;28;20279;-72
2023/05/31 04:36:03;;;;;;;2.80;2.30;;;;;;;15.88;68.34;100643.34;5070608;28;20296;-73
2023/05/31 04:38:29;;;;;;;4.37;2.67;;;;;;;16.11;67.41;100645.31;5073570;28;20181;-73
2023/05/31 04:40:57;;;;;;;6.03;2.50;;;;;;;16.37;66.55;100651.63;5070044;28;20755;-73
2023/05/31 04:43:22;;;;;;;3.93;2.43;;;;;;;16.55;66.59;100642.41;5070776;28;20613;-73
2023/05/31 04:45:48;;;;;;;5.77;2.60;;;;;;;16.63;66.58;100651.81;5073557;28;20286;-73
2023/05/31 04:48:15;;;;;;;4.20;2.37;;;;;;;16.58;66.54;100647.56;5069315;28;20238;-72
2023/05/31 04:50:40;;;;;;;5.00;2.73;;;;;;;16.67;66.12;100654.28;5068480;28;20207;-74
2023/05/31 04:53:06;;;;;;;5.57;2.70;;;;;;;16.68;66.47;100650.75;5072616;28;20295;-73
2023/05/31 04:55:31;;;;;;;9.47;3.73;;;;;;;16.66;66.83;100644.72;5071043;28;20189;-74
2023/05/31 04:57:56;;;;;;;6.57;2.60;;;;;;;16.66;66.61;100643.84;5067476;28;20196;-74
2023/05/31 05:00:22;;;;;;;5.60;2.43;;;;;;;16.71;66.67;100647.19;5068382;28;20269;-74
2023/05/31 05:02:47;;;;;;;5.93;2.20;;;;;;;16.76;66.35;100648.78;5068988;28;20741;-74
2023/05/31 05:05:13;;;;;;;2.67;2.40;;;;;;;16.84;66.52;100652.94;5071035;28;20189;-74
2023/05/31 05:07:38;;;;;;;4.43;2.10;;;;;;;17.06;65.81;100654.03;5069751;28;20225;-73
2023/05/31 05:10:04;;;;;;;3.67;2.00;;;;;;;17.29;65.58;100649.88;5052971;28;20227;-73
2023/05/31 05:12:30;;;;;;;4.90;2.43;;;;;;;17.58;64.88;100657.69;5068088;28;20200;-73
2023/05/31 05:14:55;;;;;;;2.97;2.40;;;;;;;17.47;65.20;100658.88;5072568;28;20639;-73
2023/05/31 05:17:20;;;;;;;4.37;2.50;;;;;;;17.57;64.32;100651.59;5051278;28;20487;-71
2023/05/31 05:19:46;;;;;;;4.07;2.40;;;;;;;17.89;64.05;100656.66;5071849;28;20227;-74
2023/05/31 05:22:11;;;;;;;6.17;2.50;;;;;;;17.93;63.58;100653.06;5072127;28;20209;-74
2023/05/31 05:24:36;;;;;;;4.23;2.07;;;;;;;17.87;63.68;100659.34;5072141;28;20190;-74
2023/05/31 05:27:02;;;;;;;4.67;2.50;;;;;;;17.96;63.45;100652.94;5072143;28;20196;-73
2023/05/31 05:29:27;;;;;;;3.90;2.40;;;;;;;17.98;63.80;100652.00;5051251;28;20251;-73
2023/05/31 05:31:53;;;;;;;4.50;2.43;;;;;;;18.11;63.05;100662.06;5067711;28;20267;-72
2023/05/31 05:34:20;;;;;;;4.03;2.40;;;;;;;18.21;63.26;100662.59;5068766;28;20283;-74
2023/05/31 05:36:45;;;;;;;7.17;2.60;;;;;;;18.23;63.20;100659.00;5068805;28;20193;-73
2023/05/31 05:39:11;;;;;;;10.03;2.67;;;;;;;18.31;62.73;100653.50;5068544;28;20189;-73
2023/05/31 05:41:36;;;;;;;4.23;2.13;;;;;;;18.34;63.48;100648.16;5065547;28;20229;-72
2023/05/31 05:44:02;;;;;;;5.53;2.80;;;;;;;18.73;63.06;100655.50;5071882;28;20292;-74
2023/05/31 05:46:28;;;;;;;4.03;2.27;;;;;;;18.62;62.67;100651.56;5070445;28;20673;-73
2023/05/31 05:48:54;;;;;;;6.17;2.40;;;;;;;18.92;62.68;100662.66;5067023;28;20224;-72
2023/05/31 05:51:19;;;;;;;5.83;2.90;;;;;;;18.82;62.46;100669.16;5080783;28;20228;-73
2023/05/31 05:53:45;;;;;;;4.87;2.33;;;;;;;18.68;62.36;100661.81;5050596;28;20288;-72
2023/05/31 05:56:17;;;;;;;10.33;2.67;;;;;;;18.71;62.71;100672.19;5070834;28;20200;-74
2023/05/31 05:58:43;;;;;;;3.50;2.30;;;;;;;18.92;62.66;100661.81;5074194;28;20185;-73
2023/05/31 06:01:12;;;;;;;5.40;2.57;;;;;;;18.89;62.17;100657.53;5068793;28;20216;-73
2023/05/31 06:03:37;;;;;;;3.53;1.90;;;;;;;19.22;61.86;100664.19;5073542;28;20201;-74
2023/05/31 06:06:03;;;;;;;2.90;2.07;;;;;;;19.30;61.93;100663.00;5057848;28;20256;-75
2023/05/31 06:08:28;;;;;;;5.43;2.63;;;;;;;19.46;61.63;100657.13;5053532;28;20205;-73
2023/05/31 06:10:53;;;;;;;6.07;2.30;;;;;;;19.54;61.31;100657.66;5065410;28;20339;-75
2023/05/31 06:13:19;;;;;;;4.80;2.50;;;;;;;19.84;60.44;100664.34;5067331;28;20191;-74
2023/05/31 06:15:44;;;;;;;10.17;2.50;;;;;;;19.75;61.00;100647.19;5073450;28;20236;-74
2023/05/31 06:18:10;;;;;;;5.60;2.60;;;;;;;19.77;60.95;100655.88;5070948;28;20241;-75
2023/05/31 06:20:35;;;;;;;6.47;2.60;;;;;;;20.06;61.38;100651.19;5051348;28;20803;-73
2023/05/31 06:23:00;;;;;;;7.73;2.40;;;;;;;19.80;59.93;100658.38;5072525;28;20228;-74
2023/05/31 06:25:26;;;;;;;6.67;2.73;;;;;;;19.61;60.63;100656.50;5071438;28;20189;-74
2023/05/31 06:27:51;;;;;;;4.60;2.63;;;;;;;19.60;60.26;100660.03;5077447;28;20675;-74
2023/05/31 06:30:17;;;;;;;6.40;2.23;;;;;;;19.68;60.91;100645.72;5074118;28;20240;-74
2023/05/31 06:32:42;;;;;;;5.77;2.37;;;;;;;19.73;60.48;100652.53;5073296;28;20329;-74
2023/05/31 06:35:08;;;;;;;5.40;2.40;;;;;;;20.19;60.47;100648.91;5072362;28;20188;-73
2023/05/31 06:37:34;;;;;;;4.87;2.57;;;;;;;19.91;60.15;100660.56;5067981;28;20196;-73
2023/05/31 06:39:59;;;;;;;7.23;2.43;;;;;;;19.89;60.38;100649.28;5071146;28;20232;-74
2023/05/31 06:42:24;;;;;;;10.03;2.87;;;;;;;19.82;60.26;100648.63;5066387;28;20275;-74
2023/05/31 06:44:50;;;;;;;3.57;2.13;;;;;;;19.95;60.22;100656.91;5064961;28;20278;-75
2023/05/31 06:47:15;;;;;;;4.87;2.40;;;;;;;20.05;59.54;100649.47;5064208;28;20321;-74
2023/05/31 06:49:41;;;;;;;5.67;2.60;;;;;;;20.17;59.70;100654.19;5064970;28;20215;-73
2023/05/31 06:52:06;;;;;;;5.13;2.33;;;;;;;20.04;59.86;100656.50;5066239;28;20268;-74
2023/05/31 06:54:36;;;;;;;6.03;2.63;;;;;;;20.15;59.99;100640.28;5065780;28;20192;-74
2023/05/31 06:57:03;;;;;;;5.80;2.60;;;;;;;20.32;59.31;100649.19;5069814;28;21006;-74
2023/05/31 06:59:28;;;;;;;4.07;2.40;;;;;;;20.35;59.33;100647.28;5072808;28;20189;-74
2023/05/31 07:01:54;;;;;;;5.43;2.77;;;;;;;20.40;59.21;100641.84;5068132;28;20195;-73
2023/05/31 07:04:20;;;;;;;10.53;2.67;;;;;;;20.59;59.74;100641.88;5071076;28;20182;-72
2023/05/31 07:06:45;;;;;;;3.83;2.30;;;;;;;20.53;59.69;100642.13;5067390;28;20205;-74
2023/05/31 07:09:10;;;;;;;3.27;2.30;;;;;;;20.58;59.09;100648.03;5070303;28;20205;-74
2023/05/31 07:11:39;;;;;;;3.73;2.57;;;;;;;20.51;59.44;100638.72;5069388;28;20677;-75
2023/05/31 07:14:04;;;;;;;4.87;2.70;;;;;;;20.51;59.70;100647.47;5071088;28;20750;-72
2023/05/31 07:16:30;;;;;;;6.87;2.17;;;;;;;20.61;58.94;100636.53;5047631;28;20582;-73
2023/05/31 07:18:56;;;;;;;4.47;2.60;;;;;;;20.69;59.10;100632.63;5069157;28;20757;-73
2023/05/31 07:21:22;;;;;;;3.37;2.20;;;;;;;20.49;58.96;100638.78;5066628;28;20221;-74
2023/05/31 07:23:48;;;;;;;5.93;2.70;;;;;;;20.59;60.08;100641.00;5071606;28;20189;-73
2023/05/31 07:26:15;;;;;;;3.63;2.60;;;;;;;20.77;59.91;100640.19;5052142;28;20189;-74
2023/05/31 07:28:41;;;;;;;5.50;2.73;;;;;;;20.95;59.27;100629.75;5049971;28;20216;-74
2023/05/31 07:31:06;;;;;;;3.13;2.20;;;;;;;21.28;58.55;100632.53;5067612;28;20221;-75
2023/05/31 07:33:32;;;;;;;4.97;2.60;;;;;;;21.36;58.08;100631.31;5069285;28;20196;-73
2023/05/31 07:36:00;;;;;;;5.73;2.70;;;;;;;21.62;58.53;100617.75;5067967;28;22068;-74
2023/05/31 07:38:26;;;;;;;3.77;2.67;;;;;;;21.36;58.51;100631.31;5069697;28;20193;-73
2023/05/31 07:40:51;;;;;;;6.07;2.67;;;;;;;21.40;58.52;100620.56;5070398;28;20201;-73
2023/05/31 07:43:21;;;;;;;4.50;2.57;;;;;;;21.48;58.19;100617.53;5071445;28;20240;-73
2023/05/31 07:45:49;;;;;;;7.47;2.80;;;;;;;21.59;58.91;100615.22;5069603;28;20185;-73
2023/05/31 07:48:17;;;;;;;6.30;2.30;;;;;;;21.35;59.11;100614.66;5069753;28;20193;-74
2023/05/31 07:50:42;;;;;;;6.50;2.50;;;;;;;21.73;58.63;100619.84;5054601;28;20249;-73
2023/05/31 07:53:08;;;;;;;4.43;2.60;;;;;;;21.81;58.71;100613.31;5073392;28;20177;-74
2023/05/31 07:55:33;;;;;;;6.80;3.00;;;;;;;21.67;58.36;100612.25;5074332;28;20704;-73
2023/05/31 07:57:58;;;;;;;5.20;2.63;;;;;;;21.57;58.51;100609.19;5071545;28;20216;-74
2023/05/31 08:00:23;;;;;;;4.87;2.60;;;;;;;21.55;58.53;100612.81;5074604;28;20201;-74
2023/05/31 08:02:49;;;;;;;3.73;2.43;;;;;;;21.70;58.59;100598.91;5072641;28;20197;-74
2023/05/31 08:05:14;;;;;;;4.47;2.80;;;;;;;21.56;58.55;100604.00;5071653;28;20180;-73
2023/05/31 08:07:39;;;;;;;6.93;2.90;;;;;;;21.58;59.60;100607.41;5072570;28;20721;-75
2023/05/31 08:10:05;;;;;;;3.90;2.70;;;;;;;21.56;59.57;100596.94;5072905;28;20217;-73
2023/05/31 08:12:31;;;;;;;6.50;2.70;;;;;;;21.82;59.59;100604.50;5072217;28;20201;-73
2023/05/31 08:14:56;;;;;;;6.17;2.77;;;;;;;21.80;58.38;100601.06;5071875;28;20675;-73
2023/05/31 08:17:22;;;;;;;6.13;2.70;;;;;;;21.73;58.29;100601.41;5071844;28;20189;-76
2023/05/31 08:19:47;;;;;;;3.77;2.43;;;;;;;21.66;58.22;100602.63;5072567;28;20216;-73
2023/05/31 08:22:12;;;;;;;6.37;2.70;;;;;;;21.56;57.49;100617.16;5075745;28;20655;-73
2023/05/31 08:24:38;;;;;;;5.60;2.50;;;;;;;21.34;57.89;100588.41;5072606;28;20192;-75
2023/05/31 08:27:03;;;;;;;5.47;2.90;;;;;;;21.46;57.59;100588.69;5055360;28;20251;-73
2023/05/31 08:29:30;;;;;;;7.63;3.10;;;;;;;21.59;58.20;100604.69;5051970;28;21845;-73
2023/05/31 08:31:55;;;;;;;5.87;2.77;;;;;;;21.69;57.63;100589.31;5071958;28;20672;-73
2023/05/31 08:34:21;;;;;;;4.97;2.47;;;;;;;21.72;57.41;100583.91;5072966;28;20201;-72
2023/05/31 08:36:47;;;;;;;6.20;2.70;;;;;;;21.79;58.05;100576.53;5071886;28;20190;-74
2023/05/31 08:39:12;;;;;;;4.90;2.90;;;;;;;22.02;58.42;100579.72;5073251;28;20181;-73
2023/05/31 08:42:14;;;;;;;8.53;2.93;;;;;;;22.11;57.93;100583.69;5071180;28;20208;-73
2023/05/31 08:44:40;;;;;;;7.60;3.20;;;;;;;22.14;58.94;100584.38;5025944;28;20197;-72
2023/05/31 08:47:22;;;;;;;5.00;2.70;;;;;;;22.03;57.55;100594.63;5073574;28;20241;-74
2023/05/31 08:49:48;;;;;;;9.43;3.40;;;;;;;21.87;57.35;100594.56;5072065;28;20810;-72
2023/05/31 08:52:13;;;;;;;7.27;2.80;;;;;;;21.79;57.40;100587.06;5072715;28;20181;-73
2023/05/31 08:54:40;;;;;;;4.43;2.53;;;;;;;21.71;58.21;100571.66;5067830;28;20221;-73
2023/05/31 08:57:05;;;;;;;9.70;2.80;;;;;;;21.69;57.99;100570.03;5072244;28;20185;-73
2023/05/31 08:59:33;;;;;;;7.30;2.80;;;;;;;21.60;58.32;100590.63;5070750;28;20595;-73
2023/05/31 09:02:00;;;;;;;4.43;2.40;;;;;;;21.71;58.33;100565.50;5072023;28;20181;-73
2023/05/31 09:04:26;;;;;;;8.07;3.10;;;;;;;21.78;58.89;100570.38;5068862;28;21064;-73
2023/05/31 09:06:52;;;;;;;5.67;2.73;;;;;;;21.83;58.21;100577.22;5071236;28;20189;-74
2023/05/31 09:09:18;;;;;;;4.93;2.70;;;;;;;21.80;58.69;100572.09;5068958;28;20266;-73
2023/05/31 09:11:44;;;;;;;6.07;2.50;;;;;;;21.85;58.40;100568.31;5051829;28;20347;-73
2023/05/31 09:14:10;;;;;;;6.30;3.03;;;;;;;21.84;58.36;100565.75;5071006;28;20300;-73
2023/05/31 09:16:35;;;;;;;4.67;2.90;;;;;;;21.96;58.78;100554.56;5052380;28;20185;-73
2023/05/31 09:19:05;;;;;;;5.30;2.50;;;;;;;22.05;58.28;100548.81;5069489;28;21230;-74
2023/05/31 09:21:41;;;;;;;5.27;2.90;;;;;;;22.15;57.89;100557.09;5068510;28;20865;-75
2023/05/31 09:24:08;;;;;;;6.37;2.80;;;;;;;22.22;58.72;100562.91;5069796;28;20190;-75
2023/05/31 09:26:34;;;;;;;9.43;2.87;;;;;;;22.25;57.37;100552.16;5073019;28;20194;-75
2023/05/31 09:28:59;;;;;;;6.97;2.70;;;;;;;22.27;56.67;100555.56;5052466;28;20888;-74
2023/05/31 09:31:27;;;;;;;4.13;2.50;;;;;;;22.34;57.34;100542.91;5069051;28;20216;-74
2023/05/31 09:33:54;;;;;;;4.73;2.40;;;;;;;22.42;57.10;100553.06;5072162;28;20945;-73
2023/05/31 09:36:27;;;;;;;5.83;2.90;;;;;;;22.59;57.94;100541.59;5049561;28;20182;-74
2023/05/31 09:39:00;;;;;;;5.60;2.50;;;;;;;22.63;57.35;100543.13;5070582;28;20188;-74
2023/05/31 09:41:27;;;;;;;3.97;2.50;;;;;;;22.71;57.14;100540.06;5066656;28;20211;-73
2023/05/31 09:43:52;;;;;;;4.63;2.53;;;;;;;22.63;57.59;100554.53;5067548;28;20197;-73
2023/05/31 09:46:19;;;;;;;5.53;2.43;;;;;;;22.57;57.24;100544.31;5053467;28;20187;-73
2023/05/31 09:48:57;;;;;;;4.90;2.40;;;;;;;22.63;56.95;100540.47;5067383;28;21016;-72
2023/05/31 09:51:22;;;;;;;6.53;3.00;;;;;;;22.60;56.37;100538.03;5070939;28;20213;-73
2023/05/31 09:53:51;;;;;;;5.67;3.10;;;;;;;22.63;57.65;100536.06;5070807;28;20192;-73
2023/05/31 09:56:18;;;;;;;6.57;3.07;;;;;;;22.67;56.78;100528.81;5072213;28;20189;-74
2023/05/31 09:58:43;;;;;;;4.17;2.97;;;;;;;22.62;57.56;100541.41;5078579;28;20246;-74
2023/05/31 10:01:09;;;;;;;5.03;2.70;;;;;;;22.72;57.11;100532.06;5078020;28;20205;-74
2023/05/31 10:03:35;;;;;;;4.93;2.90;;;;;;;22.75;57.27;100531.03;5069184;28;20206;-75
2023/05/31 10:06:01;;;;;;;4.83;2.73;;;;;;;22.80;58.09;100524.56;5076974;28;20193;-75
2023/05/31 10:08:26;;;;;;;5.33;2.97;;;;;;;22.91;58.34;100529.25;5066154;28;20182;-73
2023/05/31 10:10:55;;;;;;;3.17;2.50;;;;;;;22.99;58.33;100527.00;5069280;28;20823;-74
2023/05/31 10:13:23;;;;;;;9.97;3.10;;;;;;;22.90;57.95;100524.06;5064256;28;20189;-75
2023/05/31 10:15:53;;;;;;;15.13;4.10;;;;;;;22.90;58.08;100530.16;5068766;28;20761;-74
2023/05/31 10:18:21;;;;;;;7.23;2.93;;;;;;;22.85;58.11;100513.75;5070754;28;20188;-74
2023/05/31 10:21:20;;;;;;;6.60;2.60;;;;;;;22.83;58.17;100534.94;5069506;28;20831;-74
2023/05/31 10:23:55;;;;;;;3.37;2.50;;;;;;;22.89;58.59;100520.56;5051380;28;20193;-74
2023/05/31 10:26:22;;;;;;;10.13;3.53;;;;;;;22.96;57.72;100528.97;5071232;28;20965;-74
2023/05/31 10:28:52;;;;;;;7.87;2.60;;;;;;;22.98;57.07;100524.44;5067388;28;20235;-74
2023/05/31 10:31:22;;;;;;;7.53;2.90;;;;;;;22.97;57.22;100512.19;5070314;28;20231;-73
2023/05/31 10:33:53;;;;;;;203.90;21.23;;;;;;;23.02;58.39;100510.16;5071326;28;20185;-74
2023/05/31 10:36:18;;;;;;;11.63;2.90;;;;;;;23.12;56.81;100506.03;5064683;28;20185;-73
2023/05/31 10:38:59;;;;;;;3.77;2.87;;;;;;;23.28;56.98;100513.09;5065568;28;20196;-73
2023/05/31 10:41:30;;;;;;;5.50;2.70;;;;;;;23.26;55.83;100507.03;5062590;28;20208;-73
2023/05/31 10:44:06;;;;;;;29.47;4.27;;;;;;;23.27;55.44;100500.81;5065308;28;20199;-74
2023/05/31 10:46:34;;;;;;;6.83;3.00;;;;;;;23.37;56.29;100516.97;5065801;28;22285;-74
2023/05/31 10:49:00;;;;;;;4.53;2.90;;;;;;;23.43;55.59;100503.41;5062849;28;20236;-73
2023/05/31 10:51:41;;;;;;;5.43;2.87;;;;;;;23.58;53.84;100507.78;5065061;28;20666;-73
2023/05/31 10:54:07;;;;;;;4.30;2.90;;;;;;;23.57;53.68;100505.22;5064073;28;20184;-74
2023/05/31 10:56:32;;;;;;;6.70;2.90;;;;;;;23.49;53.93;100491.63;5063727;28;20242;-73
2023/05/31 10:58:58;;;;;;;3.33;2.13;;;;;;;23.54;54.34;100489.53;5066257;28;20321;-73
2023/05/31 11:01:28;;;;;;;6.67;3.07;;;;;;;23.56;54.52;100495.59;5063640;28;20208;-73
2023/05/31 11:03:55;;;;;;;4.00;2.80;;;;;;;23.56;54.01;100496.47;5063735;28;20253;-73
2023/05/31 11:06:27;;;;;;;6.47;3.00;;;;;;;23.58;54.62;100501.63;5071326;28;20990;-73
2023/05/31 11:09:10;;;;;;;7.40;2.57;;;;;;;23.66;54.10;100486.19;5068928;28;20243;-74
2023/05/31 11:11:42;;;;;;;5.67;2.80;;;;;;;23.72;54.10;100491.06;5070191;28;20271;-74
2023/05/31 11:14:10;;;;;;;4.77;2.47;;;;;;;23.85;54.92;100479.75;5071253;28;20188;-73
2023/05/31 11:16:45;;;;;;;7.13;2.80;;;;;;;23.92;54.65;100496.06;5065171;28;20258;-73
2023/05/31 11:19:16;;;;;;;5.13;2.57;;;;;;;23.76;53.46;100494.38;5072255;28;20280;-74
2023/05/31 11:22:08;;;;;;;6.90;2.70;;;;;;;23.77;53.88;100482.03;5067578;28;20216;-73